Time;durP1;ratioP1;P1;durP2;ratioP2;P2;SDS_P1;SDS_P2;PMS_P1;PMS_P2;Temp;Humidity;BMP_temperature;BMP_pressure;BME280_temperature;BME280_humidity;BME280_pressure;Samples;Min_cycle;Max_cycle;Signal;HPM_P1;HPM_P2
2023/03/27 00:02:13;;;;;;;1.27;0.30;;;;;;;4.37;92.38;96133.63;5004070;28;20050;-74
2023/03/27 00:04:41;;;;;;;0.30;0.30;;;;;;;4.50;91.66;96134.75;5009271;28;20073;-75
2023/03/27 00:07:08;;;;;;;0.43;0.43;;;;;;;4.55;92.10;96141.09;5008105;28;20056;-75
2023/03/27 00:09:38;;;;;;;1.38;0.40;;;;;;;4.65;91.83;96144.22;5005663;28;20049;-76
2023/03/27 00:12:05;;;;;;;0.30;0.30;;;;;;;4.74;91.50;96148.31;5006989;28;20575;-75
2023/03/27 00:14:33;;;;;;;1.27;0.50;;;;;;;4.85;91.09;96156.72;5008772;28;20117;-75
2023/03/27 00:17:01;;;;;;;2.15;0.50;;;;;;;4.64;92.27;96154.97;5009124;28;20567;-75
2023/03/27 00:19:32;;;;;;;1.10;0.90;;;;;;;4.55;93.30;96159.59;5007656;28;20050;-75
2023/03/27 00:22:00;;;;;;;1.30;1.05;;;;;;;4.70;93.63;96162.91;5008911;28;20084;-74
2023/03/27 00:24:27;;;;;;;2.38;1.40;;;;;;;4.83;93.79;96164.03;5006754;28;20516;-75
2023/03/27 00:26:55;;;;;;;3.35;1.83;;;;;;;4.85;93.25;96170.75;5005517;28;20088;-75
2023/03/27 00:29:22;;;;;;;3.28;1.88;;;;;;;4.86;93.31;96171.56;5002569;28;20056;-75
2023/03/27 00:31:50;;;;;;;4.07;2.58;;;;;;;4.80;92.96;96171.31;5007846;28;20394;-75
2023/03/27 00:34:17;;;;;;;4.13;2.50;;;;;;;5.00;92.30;96171.44;5005318;28;20100;-75
2023/03/27 00:36:50;;;;;;;2.15;1.95;;;;;;;4.70;91.54;96186.72;5019376;28;20042;-75
2023/03/27 00:39:18;;;;;;;4.75;2.83;;;;;;;4.79;91.71;96177.63;5007705;28;20072;-75
2023/03/27 00:41:46;;;;;;;3.45;2.30;;;;;;;4.78;92.32;96186.56;5009811;28;20056;-75
2023/03/27 00:44:23;;;;;;;2.80;1.98;;;;;;;4.87;90.94;96194.34;5002637;28;20077;-75
2023/03/27 00:46:53;;;;;;;2.95;1.80;;;;;;;4.72;89.92;96205.00;5000934;28;20088;-75
2023/03/27 00:49:22;;;;;;;3.05;1.73;;;;;;;4.51;90.11;96205.88;5007393;28;20046;-75
2023/03/27 00:51:52;;;;;;;1.70;1.60;;;;;;;4.53;90.24;96203.03;5004450;28;20053;-75
2023/03/27 00:54:25;;;;;;;1.70;1.60;;;;;;;4.34;90.73;96215.91;5011895;28;20038;-75
2023/03/27 00:56:54;;;;;;;1.50;1.23;;;;;;;4.22;89.61;96222.69;5006968;28;20050;-75
2023/03/27 00:59:23;;;;;;;1.48;1.35;;;;;;;4.20;90.57;96224.69;5026317;28;20041;-75
2023/03/27 01:01:52;;;;;;;3.03;1.52;;;;;;;4.22;90.21;96235.91;5028412;28;20080;-77
2023/03/27 01:04:21;;;;;;;1.52;1.42;;;;;;;4.26;91.15;96244.25;5011688;28;20141;-77
2023/03/27 01:06:52;;;;;;;1.20;1.10;;;;;;;4.21;90.26;96239.53;5010394;28;20051;-76
2023/03/27 01:09:20;;;;;;;1.15;1.05;;;;;;;4.14;90.78;96243.13;5024843;28;20049;-77
2023/03/27 01:12:11;;;;;;;1.23;1.13;;;;;;;4.15;90.38;96247.41;5027652;28;20057;-76
2023/03/27 01:14:41;;;;;;;;;;;;;;;4.14;90.78;96254.50;5014586;28;20050;-74
2023/03/27 01:17:18;;;;;;;1.73;1.20;;;;;;;4.03;90.18;96260.28;5017201;28;19922;-76
2023/03/27 01:20:16;;;;;;;1.48;1.38;;;;;;;3.99;91.26;96251.91;5012413;28;20084;-76
2023/03/27 01:23:22;;;;;;;1.63;1.33;;;;;;;3.96;90.58;96264.66;5009055;28;20143;-76
2023/03/27 01:26:27;;;;;;;1.90;1.45;;;;;;;3.78;90.37;96270.34;5023325;28;20132;-76
2023/03/27 01:29:07;;;;;;;2.22;1.33;;;;;;;3.83;90.47;96275.91;5010823;28;20133;-76
2023/03/27 01:31:45;;;;;;;3.15;1.85;;;;;;;3.85;90.86;96278.31;5012776;28;20065;-76
2023/03/27 01:34:47;;;;;;;3.45;1.90;;;;;;;3.83;90.75;96286.44;5007734;28;20042;-76
2023/03/27 01:37:49;;;;;;;3.45;1.60;;;;;;;3.87;90.87;96300.88;5003217;28;20057;-75
2023/03/27 01:40:18;;;;;;;3.47;1.38;;;;;;;3.85;89.14;96297.63;5011099;28;20049;-75
2023/03/27 01:42:48;;;;;;;1.80;1.15;;;;;;;3.64;90.42;96303.66;5010790;28;20069;-75
2023/03/27 01:45:18;;;;;;;2.35;1.20;;;;;;;3.66;89.66;96300.84;5011850;28;20046;-74
2023/03/27 01:47:52;;;;;;;2.13;1.52;;;;;;;3.50;90.87;96308.94;5006452;28;20061;-74
2023/03/27 01:50:26;;;;;;;4.28;1.48;;;;;;;3.38;90.09;96323.59;5011572;28;20134;-74
2023/03/27 01:52:58;;;;;;;2.90;2.10;;;;;;;3.35;90.61;96319.47;5007220;28;20049;-75
2023/03/27 01:55:29;;;;;;;6.50;2.05;;;;;;;3.52;90.49;96320.13;5003175;28;20827;-75
2023/03/27 01:58:02;;;;;;;5.35;1.85;;;;;;;3.35;90.30;96335.31;5002592;28;20193;-75
2023/03/27 02:00:30;;;;;;;;;;;;;;;3.22;91.01;96333.28;5011286;28;20073;-73
2023/03/27 02:03:21;;;;;;;5.85;1.63;;;;;;;3.13;91.44;96338.81;5010062;28;20385;-75
2023/03/27 02:05:51;;;;;;;3.00;1.70;;;;;;;3.11;91.30;96348.75;5009147;28;20046;-75
2023/03/27 02:08:23;;;;;;;6.25;2.30;;;;;;;3.03;91.72;96352.25;5010648;28;20425;-75
2023/03/27 02:10:58;;;;;;;1.85;1.52;;;;;;;2.94;92.11;96363.84;5010698;28;20465;-76
2023/03/27 02:13:28;;;;;;;;;;;;;;;3.13;91.24;96357.25;5022226;28;20469;-74
2023/03/27 02:16:00;;;;;;;4.85;1.98;;;;;;;3.09;91.19;96358.63;5009918;28;19921;-75
2023/03/27 02:18:31;;;;;;;3.83;1.73;;;;;;;2.97;91.44;96373.22;5009952;28;20041;-73
2023/03/27 02:20:58;;;;;;;4.15;2.08;;;;;;;3.11;91.21;96375.94;5011704;28;20113;-75
2023/03/27 02:23:29;;;;;;;5.05;2.13;;;;;;;3.09;91.38;96375.28;5002051;28;20050;-75
2023/03/27 02:25:59;;;;;;;2.80;2.00;;;;;;;3.10;91.48;96381.38;5006190;28;20501;-74
2023/03/27 02:28:35;;;;;;;2.72;2.13;;;;;;;3.15;91.57;96393.00;5021367;28;20053;-76
2023/03/27 02:31:11;;;;;;;3.88;2.17;;;;;;;3.10;91.14;96395.38;5008061;28;20092;-76
2023/03/27 02:34:13;;;;;;;3.47;2.10;;;;;;;3.16;91.44;96407.81;5009201;28;20069;-75
2023/03/27 02:36:48;;;;;;;4.50;2.35;;;;;;;3.11;91.79;96417.28;5007085;28;20140;-74
2023/03/27 02:39:19;;;;;;;4.22;2.90;;;;;;;3.05;91.97;96410.88;5009279;28;20546;-74
2023/03/27 02:41:54;;;;;;;5.05;2.60;;;;;;;3.08;91.94;96430.78;5002611;28;20046;-74
2023/03/27 02:44:50;;;;;;;3.58;2.42;;;;;;;3.04;92.14;96443.50;5003074;28;20141;-74
2023/03/27 02:47:23;;;;;;;3.38;2.50;;;;;;;3.11;91.47;96441.00;5001967;28;20038;-74
2023/03/27 02:49:54;;;;;;;4.80;2.38;;;;;;;3.05;91.27;96453.03;5006887;28;20057;-74
2023/03/27 02:52:26;;;;;;;4.85;2.30;;;;;;;3.00;90.76;96473.84;5009784;28;20053;-74
2023/03/27 02:55:03;;;;;;;5.88;2.65;;;;;;;2.80;91.57;96468.19;5006669;28;20246;-74
2023/03/27 02:57:38;;;;;;;4.07;2.13;;;;;;;2.89;90.72;96471.63;5005461;28;20045;-74
2023/03/27 03:00:26;;;;;;;6.55;2.47;;;;;;;2.81;91.18;96479.53;5007567;28;20052;-73
2023/03/27 03:03:12;;;;;;;3.95;1.65;;;;;;;2.95;90.04;96471.72;5009056;28;20107;-74
2023/03/27 03:05:40;;;;;;;3.25;1.70;;;;;;;2.87;89.75;96489.41;5010130;28;20041;-74
2023/03/27 03:08:10;;;;;;;5.13;1.60;;;;;;;2.81;90.08;96488.28;5008546;28;20044;-74
2023/03/27 03:10:43;;;;;;;3.53;2.10;;;;;;;2.90;90.10;96484.63;5009958;28;20410;-73
2023/03/27 03:13:14;;;;;;;2.95;1.75;;;;;;;2.64;90.59;96497.28;5008759;28;20101;-73
2023/03/27 03:15:42;;;;;;;2.58;2.08;;;;;;;2.61;91.23;96508.13;5023312;28;20346;-73
2023/03/27 03:18:10;;;;;;;4.43;1.63;;;;;;;2.66;91.05;96513.72;5007050;28;20045;-73
2023/03/27 03:20:38;;;;;;;2.58;1.67;;;;;;;2.58;90.43;96527.75;5011838;28;20390;-73
2023/03/27 03:23:06;;;;;;;3.45;1.60;;;;;;;2.54;91.12;96529.09;5022637;28;20536;-73
2023/03/27 03:25:34;;;;;;;5.82;1.92;;;;;;;2.47;91.20;96537.84;5009691;28;20045;-74
2023/03/27 03:28:06;;;;;;;2.28;1.20;;;;;;;2.27;91.67;96544.50;5004757;28;20037;-76
2023/03/27 03:30:40;;;;;;;2.05;1.40;;;;;;;2.13;92.38;96546.00;5009697;28;20521;-76
2023/03/27 03:33:13;;;;;;;3.03;2.03;;;;;;;2.26;92.33;96554.19;5007828;28;20048;-73
2023/03/27 03:35:41;;;;;;;2.90;1.60;;;;;;;2.24;92.68;96561.44;5009790;28;20074;-75
2023/03/27 03:38:23;;;;;;;4.32;1.35;;;;;;;2.27;92.42;96561.09;5002260;28;20414;-74
2023/03/27 03:40:53;;;;;;;3.30;1.65;;;;;;;2.17;92.65;96568.38;5011705;28;20536;-72
2023/03/27 03:43:21;;;;;;;2.58;1.50;;;;;;;2.25;91.37;96568.34;5009889;28;20046;-74
2023/03/27 03:45:51;;;;;;;2.33;1.42;;;;;;;2.18;91.55;96583.97;5010083;28;20053;-75
2023/03/27 03:48:20;;;;;;;2.22;1.67;;;;;;;2.17;91.71;96577.09;5014696;28;20046;-73
2023/03/27 03:50:49;;;;;;;2.63;1.90;;;;;;;2.18;91.77;96578.69;5001303;28;20547;-73
2023/03/27 03:53:18;;;;;;;2.63;2.03;;;;;;;2.29;92.03;96593.31;5002694;28;20038;-75
2023/03/27 03:55:46;;;;;;;2.03;1.65;;;;;;;2.12;92.73;96603.06;5009624;28;20073;-73
2023/03/27 03:58:14;;;;;;;4.22;1.98;;;;;;;2.22;91.68;96601.09;5003256;28;20039;-76
2023/03/27 04:00:43;;;;;;;2.70;1.88;;;;;;;1.95;91.99;96621.69;5004079;28;20077;-75
2023/03/27 04:03:26;;;;;;;5.35;2.05;;;;;;;2.04;92.70;96629.41;5008737;28;20068;-73
2023/03/27 04:05:54;;;;;;;2.65;2.22;;;;;;;2.14;92.72;96622.16;5008352;28;20042;-73
2023/03/27 04:08:21;;;;;;;5.63;2.63;;;;;;;2.19;92.33;96635.63;5008212;28;20464;-72
2023/03/27 04:11:04;;;;;;;4.75;2.58;;;;;;;2.28;91.95;96636.47;5005146;28;20127;-74
2023/03/27 04:13:47;;;;;;;3.80;2.70;;;;;;;2.38;91.92;96652.91;5010808;28;20046;-73
2023/03/27 04:16:27;;;;;;;4.35;2.50;;;;;;;2.35;91.40;96644.50;5006815;28;20545;-73
2023/03/27 04:18:56;;;;;;;7.60;2.80;;;;;;;2.28;91.38;96652.25;5027813;28;20046;-72
2023/03/27 04:21:26;;;;;;;9.45;3.92;;;;;;;2.38;92.71;96657.34;5024068;28;20077;-73
2023/03/27 04:24:01;;;;;;;8.75;4.13;;;;;;;2.48;92.13;96664.06;5012230;28;20050;-75
2023/03/27 04:26:42;;;;;;;5.53;4.40;;;;;;;2.57;91.67;96670.13;5020086;28;20433;-74
2023/03/27 04:29:30;;;;;;;3.72;2.67;;;;;;;2.62;91.90;96670.44;5007439;28;20061;-75
2023/03/27 04:31:59;;;;;;;3.47;2.60;;;;;;;2.61;90.92;96678.50;5015217;28;20068;-75
2023/03/27 04:34:43;;;;;;;5.88;3.17;;;;;;;2.46;91.17;96681.84;5009986;28;20092;-76
2023/03/27 04:37:29;;;;;;;9.50;3.83;;;;;;;2.47;91.64;96680.84;5004688;28;20366;-76
2023/03/27 04:40:16;;;;;;;4.53;3.05;;;;;;;2.45;91.76;96687.28;5012497;28;20093;-76
2023/03/27 04:42:44;;;;;;;7.40;4.00;;;;;;;2.58;91.93;96682.31;5006493;28;20460;-76
2023/03/27 04:45:13;;;;;;;7.25;3.05;;;;;;;2.72;91.37;96691.31;5005107;28;20395;-76
2023/03/27 04:47:44;;;;;;;5.20;2.90;;;;;;;2.66;91.25;96702.53;5010391;28;20405;-76
2023/03/27 04:50:14;;;;;;;7.28;3.92;;;;;;;2.66;91.40;96699.91;5006152;28;20058;-76
2023/03/27 04:52:42;;;;;;;11.73;5.80;;;;;;;2.76;91.44;96714.53;5009690;28;20050;-76
2023/03/27 04:55:11;;;;;;;10.95;5.70;;;;;;;2.76;91.27;96719.81;5018863;28;20072;-74
2023/03/27 04:57:45;;;;;;;6.28;3.38;;;;;;;2.77;91.25;96723.28;5015832;28;20065;-74
2023/03/27 05:00:15;;;;;;;4.50;3.72;;;;;;;2.78;91.10;96724.91;5017740;28;20042;-74
2023/03/27 05:02:47;;;;;;;6.78;5.03;;;;;;;2.71;92.16;96740.56;5020985;28;20072;-74
2023/03/27 05:05:22;;;;;;;8.40;4.95;;;;;;;2.76;91.44;96740.06;5013848;28;20465;-74
2023/03/27 05:07:51;;;;;;;7.22;3.58;;;;;;;2.83;91.51;96743.66;5016314;28;20078;-74
2023/03/27 05:10:22;;;;;;;8.70;4.00;;;;;;;2.91;89.96;96755.00;5016346;28;20049;-76
2023/03/27 05:12:52;;;;;;;9.75;4.53;;;;;;;2.89;89.16;96757.00;5015857;28;20397;-76
2023/03/27 05:15:23;;;;;;;8.85;4.15;;;;;;;2.69;89.03;96757.53;5011510;28;20117;-76
2023/03/27 05:17:53;;;;;;;7.45;3.75;;;;;;;2.69;88.57;96765.44;5014385;28;20056;-73
2023/03/27 05:20:25;;;;;;;8.05;4.55;;;;;;;2.70;89.82;96767.88;5012286;28;20152;-72
2023/03/27 05:22:54;;;;;;;9.30;3.75;;;;;;;2.75;88.89;96772.66;5013902;28;20046;-74
2023/03/27 05:25:31;;;;;;;6.30;3.95;;;;;;;2.76;88.63;96782.22;5007859;28;20100;-73
2023/03/27 05:28:01;;;;;;;5.78;2.85;;;;;;;2.72;87.58;96773.81;5011634;28;20044;-74
2023/03/27 05:30:31;;;;;;;3.95;3.38;;;;;;;2.79;84.46;96781.88;5011012;28;20575;-73
2023/03/27 05:33:13;;;;;;;5.93;2.60;;;;;;;2.79;84.09;96789.78;5010093;28;20046;-76
2023/03/27 05:35:47;;;;;;;4.13;2.45;;;;;;;2.69;84.79;96792.59;5011265;28;20506;-76
2023/03/27 05:38:16;;;;;;;5.07;2.70;;;;;;;2.73;85.32;96793.06;5005781;28;20050;-74
2023/03/27 05:40:52;;;;;;;2.95;1.85;;;;;;;2.52;83.56;96797.03;5011656;28;20104;-74
2023/03/27 05:43:20;;;;;;;2.75;1.98;;;;;;;2.59;83.50;96813.03;5010660;28;20509;-74
2023/03/27 05:45:48;;;;;;;5.28;2.22;;;;;;;2.47;83.06;96809.88;5011078;28;20060;-74
2023/03/27 05:48:16;;;;;;;2.40;2.20;;;;;;;2.42;83.60;96820.06;5011198;28;20583;-76
2023/03/27 05:50:45;;;;;;;3.45;2.10;;;;;;;2.36;82.65;96828.63;5009203;28;20060;-73
2023/03/27 05:53:18;;;;;;;2.22;2.00;;;;;;;2.30;83.83;96826.63;5011672;28;20132;-75
2023/03/27 05:56:10;;;;;;;6.32;2.35;;;;;;;2.13;84.44;96835.47;5011619;28;20045;-74
2023/03/27 05:58:48;;;;;;;6.32;2.55;;;;;;;2.11;84.21;96845.34;5007703;28;20052;-75
2023/03/27 06:01:16;;;;;;;4.93;2.03;;;;;;;2.19;85.02;96843.56;5011642;28;20497;-75
2023/03/27 06:03:47;;;;;;;4.05;2.33;;;;;;;2.26;84.59;96853.44;5011764;28;20094;-75
2023/03/27 06:06:22;;;;;;;3.72;1.95;;;;;;;2.24;84.37;96858.06;5012857;28;20555;-76
2023/03/27 06:08:58;;;;;;;4.32;2.13;;;;;;;2.22;84.25;96860.84;5004526;28;20042;-75
2023/03/27 06:11:27;;;;;;;2.85;2.50;;;;;;;2.28;84.29;96862.03;5007761;28;20053;-75
2023/03/27 06:13:56;;;;;;;3.13;2.10;;;;;;;2.28;84.73;96873.38;5006597;28;20072;-75
2023/03/27 06:16:39;;;;;;;6.90;2.35;;;;;;;2.34;84.74;96882.41;5023872;28;20136;-74
2023/03/27 06:19:24;;;;;;;3.40;2.67;;;;;;;2.21;83.56;96880.25;5004913;28;20470;-73
2023/03/27 06:21:54;;;;;;;4.30;2.05;;;;;;;2.15;83.73;96894.06;5015459;28;20046;-74
2023/03/27 06:24:22;;;;;;;4.43;2.55;;;;;;;2.09;85.63;96902.56;5013014;28;20116;-74
2023/03/27 06:26:50;;;;;;;10.07;3.67;;;;;;;2.28;85.82;96902.34;5013581;28;20041;-74
2023/03/27 06:29:19;;;;;;;4.22;2.50;;;;;;;2.32;85.34;96905.44;5011094;28;20041;-74
2023/03/27 06:31:49;;;;;;;2.47;2.28;;;;;;;2.31;84.01;96907.25;5011336;28;20054;-73
2023/03/27 06:34:28;;;;;;;;;;;;;;;2.36;84.41;96912.88;5004889;28;20068;-73
2023/03/27 06:37:01;;;;;;;4.15;3.30;;;;;;;2.45;84.29;96922.44;5011879;28;19929;-74
2023/03/27 06:39:35;;;;;;;4.47;2.70;;;;;;;2.38;83.58;96926.72;5028617;28;20128;-74
2023/03/27 06:42:02;;;;;;;4.20;2.92;;;;;;;2.44;84.67;96935.75;5012155;28;20056;-74
2023/03/27 06:44:30;;;;;;;5.05;3.83;;;;;;;2.35;83.60;96942.81;5013193;28;20100;-75
2023/03/27 06:47:12;;;;;;;4.85;3.17;;;;;;;2.43;84.16;96939.38;5007935;28;20475;-74
2023/03/27 06:49:59;;;;;;;10.23;4.13;;;;;;;2.51;83.42;96948.13;5013939;28;20141;-74
2023/03/27 06:52:29;;;;;;;4.85;2.63;;;;;;;2.41;81.30;96942.16;5008624;28;20046;-75
2023/03/27 06:55:11;;;;;;;6.82;4.43;;;;;;;2.54;81.63;96953.06;5010446;28;20543;-74
2023/03/27 06:57:50;;;;;;;3.95;3.30;;;;;;;2.73;80.51;96959.88;5010808;28;20048;-74
2023/03/27 07:00:23;;;;;;;7.90;5.50;;;;;;;2.78;80.17;96967.31;5009536;28;20128;-75
2023/03/27 07:03:21;;;;;;;5.30;4.18;;;;;;;2.87;80.47;96967.16;4994188;28;20045;-75
2023/03/27 07:05:49;;;;;;;3.53;2.67;;;;;;;3.00;80.46;96973.75;5012295;28;20049;-75
2023/03/27 07:08:20;;;;;;;4.30;3.15;;;;;;;3.04;79.14;96975.06;5010809;28;20133;-75
2023/03/27 07:10:54;;;;;;;5.05;3.13;;;;;;;2.98;77.91;96976.56;5011228;28;20042;-75
2023/03/27 07:13:42;;;;;;;6.45;2.58;;;;;;;2.96;76.72;96978.53;5009908;28;20048;-75
2023/03/27 07:16:20;;;;;;;5.07;4.50;;;;;;;2.80;78.17;96986.41;5011533;28;20415;-75
2023/03/27 07:18:47;;;;;;;3.63;2.50;;;;;;;2.99;78.45;96987.94;5010776;28;20049;-74
2023/03/27 07:21:15;;;;;;;4.35;3.00;;;;;;;3.00;78.49;96987.78;5011706;28;20549;-75
2023/03/27 07:23:45;;;;;;;3.60;2.80;;;;;;;3.23;78.00;96994.03;5012882;28;20048;-74
2023/03/27 07:26:16;;;;;;;3.90;2.92;;;;;;;3.34;77.98;97000.78;5010765;28;20053;-76
2023/03/27 07:28:53;;;;;;;5.85;3.60;;;;;;;3.36;78.16;97006.75;5012584;28;20045;-75
2023/03/27 07:31:22;;;;;;;7.53;5.82;;;;;;;3.44;77.19;97014.66;5010929;28;20529;-75
2023/03/27 07:34:03;;;;;;;3.25;2.50;;;;;;;3.46;76.61;97017.13;5014046;28;20188;-75
2023/03/27 07:37:07;;;;;;;2.78;2.25;;;;;;;3.27;76.12;97034.09;4971907;28;20533;-75
2023/03/27 07:39:39;;;;;;;6.85;3.10;;;;;;;3.22;76.15;97026.66;4997712;28;20130;-75
2023/03/27 07:42:07;;;;;;;14.80;8.00;;;;;;;3.14;77.22;97031.09;5011470;28;20080;-75
2023/03/27 07:44:51;;;;;;;4.15;3.13;;;;;;;2.89;75.74;97035.50;5012179;28;20053;-75
2023/03/27 07:47:19;;;;;;;3.65;2.72;;;;;;;2.84;75.40;97045.69;5014500;28;20115;-74
2023/03/27 07:49:47;;;;;;;4.18;2.00;;;;;;;3.04;75.37;97054.97;5016186;28;20034;-75
2023/03/27 07:52:20;;;;;;;3.42;2.35;;;;;;;3.04;73.64;97051.50;5014653;28;20074;-75
2023/03/27 07:54:56;;;;;;;6.78;3.80;;;;;;;3.18;72.46;97051.72;5007174;28;20056;-75
2023/03/27 07:57:30;;;;;;;3.67;1.83;;;;;;;3.25;72.99;97065.91;5019158;28;20045;-76
2023/03/27 08:00:15;;;;;;;4.57;2.30;;;;;;;3.46;71.35;97060.16;5031902;28;20038;-75
2023/03/27 08:02:44;;;;;;;2.92;1.88;;;;;;;3.40;71.79;97075.81;5036777;28;20041;-75
2023/03/27 08:05:14;;;;;;;2.92;1.85;;;;;;;3.45;70.92;97090.16;5036266;28;20022;-75
2023/03/27 08:07:46;;;;;;;1.98;1.40;;;;;;;3.40;70.86;97075.81;5036126;28;20044;-75
2023/03/27 08:10:27;;;;;;;4.05;1.90;;;;;;;3.44;69.28;97087.66;5020003;28;20118;-75
2023/03/27 08:12:58;;;;;;;1.50;1.40;;;;;;;3.28;68.91;97086.66;5014828;28;20152;-75
2023/03/27 08:15:26;;;;;;;1.40;1.13;;;;;;;3.40;68.29;97087.19;5014135;28;20532;-76
2023/03/27 08:17:55;;;;;;;4.65;1.33;;;;;;;3.38;66.33;97088.34;5014045;28;20038;-75
2023/03/27 08:20:29;;;;;;;4.78;1.23;;;;;;;3.41;66.81;97088.84;5008819;28;20049;-75
2023/03/27 08:22:59;;;;;;;3.88;2.47;;;;;;;3.48;65.49;97097.75;5014505;28;20410;-75
2023/03/27 08:25:31;;;;;;;6.95;1.70;;;;;;;3.55;65.63;97092.63;5010646;28;20180;-75
2023/03/27 08:28:02;;;;;;;1.80;1.23;;;;;;;3.27;65.46;97103.47;5016019;28;20049;-75
2023/03/27 08:30:30;;;;;;;6.45;1.30;;;;;;;3.37;64.79;97102.50;5013698;28;20461;-75
2023/03/27 08:32:58;;;;;;;2.28;1.25;;;;;;;3.41;66.03;97111.75;5014918;28;20446;-75
2023/03/27 08:35:27;;;;;;;4.63;2.13;;;;;;;3.49;66.46;97117.88;5011181;28;20553;-74
2023/03/27 08:37:54;;;;;;;5.43;1.35;;;;;;;3.57;65.56;97112.59;5015211;28;20042;-74
2023/03/27 08:40:26;;;;;;;5.22;2.88;;;;;;;3.80;64.41;97115.44;5010045;28;20385;-74
2023/03/27 08:43:26;;;;;;;2.97;2.00;;;;;;;3.79;64.14;97121.69;5014520;28;20050;-75
2023/03/27 08:45:57;;;;;;;5.43;1.27;;;;;;;3.85;64.72;97115.75;5013934;28;20517;-75
2023/03/27 08:48:30;;;;;;;4.32;1.13;;;;;;;4.01;62.86;97110.47;5007211;28;20132;-75
2023/03/27 08:51:02;;;;;;;2.75;1.05;;;;;;;4.10;63.36;97119.22;5010023;28;20046;-75
2023/03/27 08:53:34;;;;;;;2.88;1.42;;;;;;;4.14;64.26;97133.75;5015436;28;20038;-75
2023/03/27 08:56:04;;;;;;;2.90;1.25;;;;;;;4.12;63.73;97129.63;5018451;28;20045;-75
2023/03/27 08:58:41;;;;;;;2.40;0.85;;;;;;;3.89;61.32;97118.88;5017623;28;20053;-75
2023/03/27 09:01:25;;;;;;;6.95;1.63;;;;;;;3.94;62.01;97130.63;5012906;28;20050;-75
2023/03/27 09:04:01;;;;;;;3.97;1.10;;;;;;;3.92;62.55;97145.78;5012989;28;20076;-75
2023/03/27 09:06:38;;;;;;;1.58;1.10;;;;;;;3.87;62.93;97142.81;5008227;28;20115;-75
2023/03/27 09:09:10;;;;;;;2.80;0.82;;;;;;;3.89;61.89;97151.41;5014602;28;20104;-75
2023/03/27 09:11:48;;;;;;;3.05;0.80;;;;;;;3.89;61.65;97154.03;5017667;28;20049;-76
2023/03/27 09:14:26;;;;;;;2.88;1.95;;;;;;;3.89;62.21;97159.31;5011264;28;20417;-75
2023/03/27 09:16:55;;;;;;;3.38;1.02;;;;;;;3.79;62.40;97163.09;5012293;28;20112;-75
2023/03/27 09:19:46;;;;;;;4.90;1.40;;;;;;;3.80;63.41;97162.94;5009933;28;20045;-75
2023/03/27 09:22:21;;;;;;;1.42;1.15;;;;;;;3.94;63.89;97172.03;5012953;28;20985;-77
2023/03/27 09:25:06;;;;;;;2.03;1.13;;;;;;;4.11;64.24;97170.22;5017656;28;20136;-77
2023/03/27 09:27:53;;;;;;;4.70;2.00;;;;;;;4.25;63.20;97173.03;5012048;28;20060;-77
2023/03/27 09:30:33;;;;;;;2.90;1.40;;;;;;;4.37;61.94;97171.69;5016070;28;20054;-77
2023/03/27 09:33:06;;;;;;;4.75;1.95;;;;;;;4.43;60.57;97176.31;5016974;28;20108;-77
2023/03/27 09:35:37;;;;;;;3.22;1.10;;;;;;;4.32;59.74;97165.25;5030697;28;20066;-75
2023/03/27 09:38:20;;;;;;;12.20;4.95;;;;;;;4.34;60.79;97184.41;5012640;28;20081;-77
2023/03/27 09:40:52;;;;;;;6.22;3.45;;;;;;;4.21;61.52;97184.91;5013139;28;20452;-75
2023/03/27 09:43:26;;;;;;;7.53;3.53;;;;;;;4.05;62.88;97188.34;5020862;28;20100;-76
2023/03/27 09:46:01;;;;;;;8.32;2.35;;;;;;;4.12;63.69;97187.72;5011697;28;20429;-76
2023/03/27 09:48:35;;;;;;;6.00;2.63;;;;;;;4.23;63.01;97193.50;5012582;28;20042;-76
2023/03/27 09:51:36;;;;;;;4.35;1.10;;;;;;;4.02;61.91;97193.97;5014642;28;20046;-77
2023/03/27 09:54:06;;;;;;;3.97;1.08;;;;;;;4.16;61.51;97196.94;5012539;28;20050;-75
2023/03/27 09:56:39;;;;;;;4.28;0.70;;;;;;;4.13;62.02;97192.00;5012911;28;20112;-75
2023/03/27 09:59:12;;;;;;;1.55;0.95;;;;;;;3.83;59.63;97189.00;5012206;28;20608;-74
2023/03/27 10:01:46;;;;;;;4.22;1.20;;;;;;;4.01;60.16;97202.06;5011789;28;20109;-75
2023/03/27 10:04:18;;;;;;;3.58;1.10;;;;;;;4.27;60.74;97201.91;5013832;28;20053;-74
2023/03/27 10:06:58;;;;;;;3.70;1.05;;;;;;;4.44;59.74;97198.28;5009076;28;20137;-74
2023/03/27 10:09:39;;;;;;;4.95;0.88;;;;;;;4.02;59.97;97196.63;5006274;28;20049;-76
2023/03/27 10:12:11;;;;;;;1.75;0.95;;;;;;;3.77;60.99;97213.41;5012124;28;20478;-76
2023/03/27 10:14:41;;;;;;;4.20;1.52;;;;;;;3.82;61.99;97207.66;5012575;28;20050;-76
2023/03/27 10:17:22;;;;;;;3.10;1.08;;;;;;;3.87;62.04;97207.97;5010996;28;20041;-76
2023/03/27 10:20:00;;;;;;;5.45;0.98;;;;;;;4.14;61.38;97215.63;5012511;28;20073;-76
2023/03/27 10:22:29;;;;;;;1.60;0.73;;;;;;;4.20;58.64;97212.31;5005307;28;20501;-76
2023/03/27 10:24:58;;;;;;;3.30;1.42;;;;;;;4.24;57.78;97207.53;5012237;28;20149;-76
2023/03/27 10:27:34;;;;;;;1.65;0.80;;;;;;;4.54;54.87;97208.69;5006284;28;20139;-76
2023/03/27 10:30:29;;;;;;;1.65;0.68;;;;;;;4.75;54.50;97212.47;5012764;28;20048;-76
2023/03/27 10:33:31;;;;;;;4.30;1.67;;;;;;;5.08;54.37;97210.56;5003776;28;20050;-76
2023/03/27 10:36:17;;;;;;;4.72;0.88;;;;;;;5.08;52.51;97220.31;5012762;28;20053;-76
2023/03/27 10:38:55;;;;;;;1.65;0.70;;;;;;;4.82;56.17;97236.38;5014475;28;20100;-76
2023/03/27 10:41:33;;;;;;;2.28;1.17;;;;;;;4.50;59.31;97245.16;5008682;28;20045;-76
2023/03/27 10:44:05;;;;;;;1.55;1.00;;;;;;;3.99;64.20;97246.28;5011418;28;20076;-76
2023/03/27 10:46:38;;;;;;;4.07;1.17;;;;;;;4.04;65.24;97241.34;5011389;28;20042;-76
2023/03/27 10:49:18;;;;;;;6.18;1.42;;;;;;;4.28;65.22;97229.97;5012232;28;20129;-74
2023/03/27 10:51:51;;;;;;;2.78;1.25;;;;;;;4.43;64.92;97237.09;5015999;28;20037;-76
2023/03/27 10:54:34;;;;;;;4.03;1.20;;;;;;;4.84;60.47;97231.78;5010101;28;20049;-75
2023/03/27 10:57:04;;;;;;;1.65;1.15;;;;;;;5.01;59.04;97236.03;5012037;28;20046;-75
2023/03/27 10:59:38;;;;;;;4.97;1.45;;;;;;;5.22;57.99;97234.66;5012555;28;20053;-75
2023/03/27 11:02:22;;;;;;;2.58;0.80;;;;;;;4.99;58.39;97263.63;5012341;28;20084;-75
2023/03/27 11:04:55;;;;;;;5.05;1.65;;;;;;;4.46;61.96;97253.59;5011764;28;20049;-75
2023/03/27 11:07:32;;;;;;;4.93;1.30;;;;;;;4.36;62.98;97269.63;5012605;28;20100;-75
2023/03/27 11:10:04;;;;;;;;;;;;;;;4.07;64.04;97275.31;5011448;28;20046;-74
2023/03/27 11:12:35;;;;;;;2.65;1.40;;;;;;;4.02;68.04;97273.19;5012376;28;20606;-76
2023/03/27 11:15:07;;;;;;;5.00;1.10;;;;;;;4.06;68.52;97273.66;5016309;28;20048;-74
2023/03/27 11:17:40;;;;;;;2.40;1.00;;;;;;;3.90;71.47;97268.38;5011624;28;20053;-74
2023/03/27 11:20:22;;;;;;;3.80;1.33;;;;;;;3.67;71.72;97273.41;5008369;28;20505;-74
2023/03/27 11:23:13;;;;;;;2.03;1.02;;;;;;;3.89;72.06;97261.44;5009638;28;20061;-76
2023/03/27 11:26:04;;;;;;;3.67;1.50;;;;;;;3.90;68.37;97265.72;5008839;28;20054;-77
2023/03/27 11:28:38;;;;;;;6.82;1.95;;;;;;;4.26;66.94;97264.47;5011770;28;20065;-75
2023/03/27 11:31:13;;;;;;;2.70;0.90;;;;;;;4.75;63.77;97260.03;5010471;28;20049;-75
2023/03/27 11:33:47;;;;;;;3.17;0.93;;;;;;;5.24;57.96;97249.34;5011857;28;20048;-75
2023/03/27 11:36:28;;;;;;;1.40;0.82;;;;;;;5.61;54.92;97263.78;5014478;28;20086;-75
2023/03/27 11:39:14;;;;;;;2.60;0.75;;;;;;;6.10;55.36;97262.59;5006083;28;20049;-75
2023/03/27 11:41:50;;;;;;;3.13;0.93;;;;;;;6.22;55.33;97274.44;5010379;28;20034;-75
2023/03/27 11:44:19;;;;;;;3.08;1.02;;;;;;;5.37;61.47;97288.53;5010016;28;20505;-75
2023/03/27 11:47:22;;;;;;;3.22;1.42;;;;;;;4.70;64.72;97293.22;5013088;28;20052;-75
2023/03/27 11:50:24;;;;;;;2.35;1.30;;;;;;;4.66;65.31;97295.41;5010705;28;20052;-75
2023/03/27 11:53:10;;;;;;;2.17;1.33;;;;;;;5.08;59.45;97292.56;5004254;28;20074;-75
2023/03/27 11:56:15;;;;;;;2.53;0.70;;;;;;;5.78;56.36;97283.91;5009118;28;20047;-75
2023/03/27 11:59:04;;;;;;;3.20;1.17;;;;;;;5.60;53.62;97286.81;5010448;28;20425;-75
2023/03/27 12:01:36;;;;;;;4.95;1.00;;;;;;;5.74;52.59;97278.13;5003456;28;20135;-75
2023/03/27 12:04:12;;;;;;;2.97;1.20;;;;;;;6.02;51.79;97283.81;5010198;28;20358;-76
2023/03/27 12:07:09;;;;;;;3.80;1.02;;;;;;;5.80;51.24;97276.63;5010352;28;20050;-75
2023/03/27 12:09:55;;;;;;;0.80;0.80;;;;;;;5.23;54.16;97303.25;5011011;28;20050;-75
2023/03/27 12:12:50;;;;;;;2.05;1.00;;;;;;;5.58;55.60;97302.03;5007148;28;20394;-75
2023/03/27 12:15:34;;;;;;;1.90;0.63;;;;;;;5.72;55.07;97297.81;5006064;28;20494;-77
2023/03/27 12:18:09;;;;;;;1.98;1.00;;;;;;;5.78;54.99;97305.09;4996834;28;20054;-74
2023/03/27 12:20:48;;;;;;;1.85;0.73;;;;;;;6.34;52.01;97305.81;5004846;28;20112;-77
2023/03/27 12:23:30;;;;;;;1.13;0.98;;;;;;;6.61;50.69;97286.75;5011829;28;20037;-77